createdAt,value
2022-08-05T00:00:00.634Z,20.1
2022-08-05T00:05:00.218Z,19.9
2022-08-05T00:10:00.163Z,19.8
2022-08-05T00:15:00.174Z,19.5
2022-08-05T00:20:01.974Z,19.4
2022-08-05T00:25:01.165Z,19.2
2022-08-05T00:30:03.084Z,19.2
2022-08-05T00:35:06.364Z,19.2
2022-08-05T00:40:00.293Z,19.1
2022-08-05T00:45:00.215Z,19.1
2022-08-05T00:50:00.172Z,19
2022-08-05T00:55:00.160Z,18.9
2022-08-05T01:00:00.180Z,18.9
2022-08-05T01:05:00.177Z,18.9
2022-08-05T01:10:00.213Z,19.1
2022-08-05T01:15:00.170Z,19.1
2022-08-05T01:20:02.971Z,19.2
2022-08-05T01:25:00.178Z,19.4
2022-08-05T01:30:00.175Z,19.5
2022-08-05T01:35:00.179Z,19.5
2022-08-05T01:40:00.255Z,19.6
2022-08-05T01:45:00.170Z,19.6
2022-08-05T01:50:03.069Z,19.6
2022-08-05T01:55:00.449Z,19.7
2022-08-05T02:00:00.212Z,19.7
2022-08-05T02:05:00.383Z,19.8
2022-08-05T02:10:00.416Z,19.8
2022-08-05T02:15:00.165Z,20
2022-08-05T02:20:00.173Z,20.4
2022-08-05T02:25:00.378Z,20.8
2022-08-05T02:30:00.960Z,21.2
2022-08-05T02:35:01.985Z,21.5
2022-08-05T02:40:00.179Z,21.8
2022-08-05T02:45:00.163Z,21.9
2022-08-05T02:50:00.179Z,21.9
2022-08-05T02:55:02.014Z,22
2022-08-05T03:00:00.176Z,22
2022-08-05T03:05:00.178Z,22.1
2022-08-05T03:10:00.174Z,21.9
2022-08-05T03:15:00.164Z,21.8
2022-08-05T03:20:00.169Z,21.8
2022-08-05T03:25:11.680Z,21.6
2022-08-05T03:30:08.309Z,21.6
2022-08-05T03:35:00.169Z,21.6
2022-08-05T03:40:01.744Z,21.4
2022-08-05T03:45:01.857Z,21.2
2022-08-05T03:50:00.173Z,21
2022-08-05T03:56:03.680Z,20.9
2022-08-05T04:00:00.174Z,20.8
2022-08-05T04:05:00.167Z,20.7
2022-08-05T04:10:02.903Z,20.7
2022-08-05T04:15:00.182Z,20.6
2022-08-05T04:20:00.165Z,20.6
2022-08-05T04:25:00.169Z,20.7
2022-08-05T04:30:00.179Z,20.7
2022-08-05T04:35:00.184Z,20.7
2022-08-05T04:40:00.184Z,20.7
2022-08-05T04:45:01.052Z,20.6
2022-08-05T04:50:06.533Z,20.5
2022-08-05T04:55:00.165Z,20.5
2022-08-05T05:00:00.173Z,20.6
2022-08-05T05:05:02.132Z,20.6
2022-08-05T05:10:02.214Z,20.7
2022-08-05T05:15:03.878Z,20.7
2022-08-05T05:20:00.305Z,20.8
2022-08-05T05:25:01.327Z,20.8
2022-08-05T05:30:04.303Z,20.9
2022-08-05T05:35:00.170Z,21.2
2022-08-05T05:40:00.170Z,21.6
2022-08-05T05:45:00.161Z,21.9
2022-08-05T05:50:01.633Z,22.3
2022-08-05T05:55:00.164Z,22.8
2022-08-05T06:00:00.198Z,23
2022-08-05T06:10:04.789Z,23.2
2022-08-05T06:15:00.164Z,23.4
2022-08-05T06:20:00.229Z,23.4
2022-08-05T06:25:00.207Z,23.5
2022-08-05T06:30:04.150Z,23.6
2022-08-05T06:35:00.182Z,23.7
2022-08-05T06:40:00.188Z,24
2022-08-05T06:45:00.179Z,24.1
2022-08-05T06:50:04.934Z,24.3
2022-08-05T06:55:00.171Z,24.6
2022-08-05T07:00:00.176Z,24.9
2022-08-05T07:05:00.169Z,25.1
2022-08-05T07:10:03.272Z,25.3
2022-08-05T07:15:00.157Z,25.5
2022-08-05T07:25:22.995Z,25.7
2022-08-05T07:30:25.542Z,25.8
2022-08-05T07:35:00.173Z,26.1
2022-08-05T07:40:04.324Z,26.4
2022-08-05T07:45:00.168Z,26.6
2022-08-05T07:50:00.165Z,26.5
2022-08-05T07:55:00.163Z,26.6
2022-08-05T08:00:00.173Z,26.9
2022-08-05T08:05:00.363Z,27.4
2022-08-05T08:10:00.170Z,27.7
2022-08-05T08:15:02.673Z,28
2022-08-05T08:20:21.051Z,28.3
2022-08-05T08:25:03.374Z,28.6
2022-08-05T08:30:06.115Z,28.9
2022-08-05T08:35:00.167Z,29.1
2022-08-05T08:40:00.342Z,29.3
2022-08-05T08:45:22.306Z,29.5
2022-08-05T08:50:18.081Z,29.6
2022-08-05T08:55:00.162Z,29.8
2022-08-05T09:00:00.188Z,30
2022-08-05T09:05:16.501Z,30.1
2022-08-05T09:10:00.170Z,30.3
2022-08-05T09:15:05.842Z,30.6
2022-08-05T09:20:02.482Z,30.8
2022-08-05T09:25:00.296Z,30.9
2022-08-05T09:30:03.393Z,31.1
2022-08-05T09:35:00.247Z,31.5
2022-08-05T09:40:00.287Z,32.1
2022-08-05T09:45:17.657Z,32
2022-08-05T09:50:02.073Z,32
2022-08-05T09:55:00.186Z,31.5
2022-08-05T10:00:02.657Z,31.6
2022-08-05T10:05:00.168Z,31.6
2022-08-05T10:10:13.918Z,31.5
2022-08-05T10:15:01.431Z,31.8
2022-08-05T10:20:04.504Z,31.9
2022-08-05T10:25:00.178Z,32.1
2022-08-05T10:30:42.021Z,32.4
2022-08-05T10:35:00.932Z,32.8
2022-08-05T10:40:16.848Z,32.8
2022-08-05T10:45:00.162Z,33
2022-08-05T10:50:31.589Z,33.1
2022-08-05T10:55:00.188Z,32.9
2022-08-05T11:00:03.062Z,32.9
2022-08-05T11:05:00.332Z,32.4
2022-08-05T11:10:04.006Z,32.4
2022-08-05T11:15:11.769Z,32.6
2022-08-05T11:20:10.721Z,32.6
2022-08-05T11:25:16.615Z,32.4
2022-08-05T11:30:00.220Z,32.6
2022-08-05T11:35:00.181Z,32.6
2022-08-05T11:40:03.536Z,32.6
2022-08-05T11:45:00.177Z,32.6
2022-08-05T11:50:00.183Z,32.9
2022-08-05T11:55:07.069Z,32.9
2022-08-05T12:00:00.177Z,33.1
2022-08-05T12:05:00.501Z,32.9
2022-08-05T12:10:05.948Z,33.1
2022-08-05T12:15:00.169Z,33
2022-08-05T12:20:16.691Z,33.2
2022-08-05T12:25:00.177Z,33.2
2022-08-05T12:30:00.169Z,33.2
2022-08-05T12:35:00.184Z,33.6
2022-08-05T12:40:03.506Z,33.4
2022-08-05T12:45:00.188Z,33.3
2022-08-05T12:50:01.954Z,33.4
2022-08-05T12:55:00.170Z,33.3
2022-08-05T13:01:57.693Z,33.4
2022-08-05T13:05:00.167Z,33.5
2022-08-05T13:10:00.181Z,33.9
2022-08-05T13:15:05.277Z,34.3
2022-08-05T13:20:00.187Z,34.1
2022-08-05T13:25:00.870Z,34.1
2022-08-05T13:30:32.788Z,34.1
2022-08-05T13:35:00.170Z,33.8
2022-08-05T13:40:15.212Z,33.5
2022-08-05T13:45:00.174Z,33.8
2022-08-05T13:50:00.177Z,33.9
2022-08-05T13:55:01.173Z,33.9
2022-08-05T14:00:02.041Z,33.9
2022-08-05T14:05:00.817Z,33.9
2022-08-05T14:10:00.170Z,34
2022-08-05T14:15:00.188Z,34.2
2022-08-05T14:20:04.751Z,33.9
2022-08-05T14:25:00.171Z,34.1
2022-08-05T14:30:00.162Z,33.9
2022-08-05T14:35:00.168Z,34.1
2022-08-05T14:40:00.335Z,33.8
2022-08-05T14:45:00.177Z,33.9
2022-08-05T14:50:05.833Z,33.9
2022-08-05T14:55:00.166Z,33.9
2022-08-05T15:00:00.200Z,33.9
2022-08-05T15:05:00.174Z,34.4
2022-08-05T15:10:01.578Z,34.6
2022-08-05T15:15:00.177Z,34.4
2022-08-05T15:20:00.192Z,34.4
2022-08-05T15:25:00.221Z,34.4
2022-08-05T15:30:00.321Z,34.1
2022-08-05T15:35:04.123Z,34.2
2022-08-05T15:40:59.935Z,34.1
2022-08-05T15:45:00.202Z,33.4
2022-08-05T15:50:00.299Z,32.9
2022-08-05T15:55:00.183Z,32.4
2022-08-05T16:00:00.169Z,32.1
2022-08-05T16:05:00.182Z,31.5
2022-08-05T16:10:00.203Z,29.6
2022-08-05T16:15:00.175Z,28.4
2022-08-05T16:20:04.842Z,28.1
2022-08-05T16:25:00.180Z,27.4
2022-08-05T16:30:00.166Z,26.9
2022-08-05T16:35:00.181Z,26.4
2022-08-05T16:40:04.312Z,26.1
2022-08-05T16:45:00.173Z,25.4
2022-08-05T16:50:00.175Z,24.8
2022-08-05T16:55:00.185Z,24.3
2022-08-05T17:00:01.571Z,25.2
2022-08-05T17:05:00.193Z,28.2
2022-08-05T17:10:00.292Z,28.8
2022-08-05T17:15:00.181Z,27.9
2022-08-05T17:20:00.178Z,27.1
2022-08-05T17:25:00.367Z,26.4
2022-08-05T17:30:02.174Z,25.8
2022-08-05T17:35:00.168Z,25.2
2022-08-05T17:40:00.542Z,25
2022-08-05T17:45:00.197Z,24.7
2022-08-05T17:50:10.449Z,24.2
2022-08-05T17:55:00.176Z,23.9
2022-08-05T18:00:05.541Z,23.9
2022-08-05T18:05:00.286Z,23.7
2022-08-05T18:10:02.045Z,23.5
2022-08-05T18:15:00.183Z,23.4
2022-08-05T18:20:00.171Z,23.3
2022-08-05T18:25:00.164Z,23.2
2022-08-05T18:30:00.210Z,23.2
2022-08-05T18:35:00.174Z,23.1
2022-08-05T18:41:50.773Z,22.9
2022-08-05T18:45:00.255Z,22.8
2022-08-05T18:50:00.499Z,22.8
2022-08-05T18:55:00.178Z,22.8
2022-08-05T19:00:03.129Z,22.8
2022-08-05T19:05:01.444Z,22.6
2022-08-05T19:10:00.170Z,22.5
2022-08-05T19:15:02.654Z,22.3
2022-08-05T19:20:00.163Z,22.2
2022-08-05T19:25:00.179Z,22.1
2022-08-05T19:30:00.180Z,22.2
2022-08-05T19:35:00.167Z,22.2
2022-08-05T19:40:00.395Z,22.1
2022-08-05T19:45:00.170Z,22.1
2022-08-05T19:50:00.187Z,22.1
2022-08-05T19:55:00.461Z,22.1
2022-08-05T20:00:04.275Z,21.9
2022-08-05T20:05:00.409Z,21.6
2022-08-05T20:10:00.326Z,21.7
2022-08-05T20:15:00.299Z,21.7
2022-08-05T20:20:00.283Z,21.6
2022-08-05T20:25:00.213Z,21.4
2022-08-05T20:30:00.247Z,21.3
2022-08-05T20:35:00.177Z,21.3
2022-08-05T20:40:00.401Z,21.3
2022-08-05T20:45:00.683Z,20.9
2022-08-05T20:50:00.177Z,20.8
2022-08-05T20:55:56.246Z,20.4
2022-08-05T21:00:20.979Z,20.2
2022-08-05T21:05:01.266Z,20.3
2022-08-05T21:10:00.169Z,20.3
2022-08-05T21:15:00.181Z,20.1
2022-08-05T21:20:04.284Z,20.1
2022-08-05T21:25:00.175Z,20.2
2022-08-05T21:30:02.002Z,20.1
2022-08-05T21:35:16.799Z,20.1
2022-08-05T21:40:00.163Z,19.9
2022-08-05T21:45:00.170Z,19.6
2022-08-05T21:50:01.885Z,19.8
2022-08-05T21:55:06.311Z,19.8
2022-08-05T22:00:06.295Z,19.6
2022-08-05T22:05:00.197Z,19.6
2022-08-05T22:10:00.182Z,19.6
2022-08-05T22:15:00.168Z,19.6
2022-08-05T22:20:13.671Z,19.8
2022-08-05T22:25:00.184Z,19.8
2022-08-05T22:30:00.172Z,19.8
2022-08-05T22:35:00.168Z,19.8
2022-08-05T22:40:00.350Z,19.8
2022-08-05T22:45:00.173Z,19.8
2022-08-05T22:50:21.509Z,19.7
2022-08-05T22:55:00.196Z,19.7
2022-08-05T23:00:00.176Z,19.8
2022-08-05T23:05:01.956Z,19.8
2022-08-05T23:10:02.086Z,19.8
2022-08-05T23:15:00.177Z,19.9
2022-08-05T23:20:00.167Z,19.9
2022-08-05T23:25:00.171Z,19.9
2022-08-05T23:30:00.168Z,19.8
2022-08-05T23:35:00.182Z,19.9
2022-08-05T23:40:00.347Z,19.9
2022-08-05T23:45:00.205Z,20
2022-08-05T23:50:00.178Z,19.9
2022-08-05T23:55:00.186Z,19.9
